sensor_id;sensor_type;location;lat;lon;timestamp;P1;durP1;ratioP1;P2;durP2;ratioP2
5553;SDS011;2800;49.528;8.666;2023-03-16T00:00:11;17.17;;;9.47;;
5553;SDS011;2800;49.528;8.666;2023-03-16T00:02:38;23.23;;;12.32;;
5553;SDS011;2800;49.528;8.666;2023-03-16T00:05:05;19.85;;;11.13;;
5553;SDS011;2800;49.528;8.666;2023-03-16T00:07:32;27.38;;;13.40;;
5553;SDS011;2800;49.528;8.666;2023-03-16T00:09:58;19.63;;;12.05;;
5553;SDS011;2800;49.528;8.666;2023-03-16T00:12:24;19.63;;;11.90;;
5553;SDS011;2800;49.528;8.666;2023-03-16T00:14:50;22.38;;;13.55;;
5553;SDS011;2800;49.528;8.666;2023-03-16T00:17:17;18.77;;;8.45;;
5553;SDS011;2800;49.528;8.666;2023-03-16T00:22:31;14.63;;;7.40;;
5553;SDS011;2800;49.528;8.666;2023-03-16T00:24:57;11.07;;;6.20;;
5553;SDS011;2800;49.528;8.666;2023-03-16T00:27:24;13.20;;;5.97;;
5553;SDS011;2800;49.528;8.666;2023-03-16T00:29:50;12.57;;;8.30;;
5553;SDS011;2800;49.528;8.666;2023-03-16T00:32:21;16.35;;;8.85;;
5553;SDS011;2800;49.528;8.666;2023-03-16T00:34:48;10.60;;;6.60;;
5553;SDS011;2800;49.528;8.666;2023-03-16T00:37:16;9.90;;;6.10;;
5553;SDS011;2800;49.528;8.666;2023-03-16T00:39:43;9.50;;;6.30;;
5553;SDS011;2800;49.528;8.666;2023-03-16T00:42:10;10.75;;;6.88;;
5553;SDS011;2800;49.528;8.666;2023-03-16T00:44:36;10.73;;;7.15;;
5553;SDS011;2800;49.528;8.666;2023-03-16T00:47:03;10.83;;;7.60;;
5553;SDS011;2800;49.528;8.666;2023-03-16T00:49:30;15.60;;;8.83;;
5553;SDS011;2800;49.528;8.666;2023-03-16T00:51:59;12.15;;;8.45;;
5553;SDS011;2800;49.528;8.666;2023-03-16T00:54:25;15.27;;;10.37;;
5553;SDS011;2800;49.528;8.666;2023-03-16T00:56:51;14.93;;;10.33;;
5553;SDS011;2800;49.528;8.666;2023-03-16T00:59:17;13.50;;;9.03;;
5553;SDS011;2800;49.528;8.666;2023-03-16T01:01:44;15.50;;;9.47;;
5553;SDS011;2800;49.528;8.666;2023-03-16T01:04:10;14.27;;;9.63;;
5553;SDS011;2800;49.528;8.666;2023-03-16T01:06:37;15.57;;;10.70;;
5553;SDS011;2800;49.528;8.666;2023-03-16T01:09:03;13.03;;;9.90;;
5553;SDS011;2800;49.528;8.666;2023-03-16T01:11:29;13.43;;;10.23;;
5553;SDS011;2800;49.528;8.666;2023-03-16T01:13:58;13.20;;;9.20;;
5553;SDS011;2800;49.528;8.666;2023-03-16T01:16:23;15.57;;;10.30;;
5553;SDS011;2800;49.528;8.666;2023-03-16T01:18:49;14.03;;;9.67;;
5553;SDS011;2800;49.528;8.666;2023-03-16T01:21:16;12.30;;;9.47;;
5553;SDS011;2800;49.528;8.666;2023-03-16T01:23:42;12.37;;;9.60;;
5553;SDS011;2800;49.528;8.666;2023-03-16T01:26:08;14.80;;;11.00;;
5553;SDS011;2800;49.528;8.666;2023-03-16T01:28:35;14.40;;;10.00;;
5553;SDS011;2800;49.528;8.666;2023-03-16T01:31:01;13.43;;;10.77;;
5553;SDS011;2800;49.528;8.666;2023-03-16T01:33:30;15.85;;;11.40;;
5553;SDS011;2800;49.528;8.666;2023-03-16T01:38:21;15.73;;;11.00;;
5553;SDS011;2800;49.528;8.666;2023-03-16T01:40:48;14.27;;;9.60;;
5553;SDS011;2800;49.528;8.666;2023-03-16T01:43:15;14.15;;;10.88;;
5553;SDS011;2800;49.528;8.666;2023-03-16T01:45:55;15.30;;;10.47;;
5553;SDS011;2800;49.528;8.666;2023-03-16T01:48:43;15.30;;;11.13;;
5553;SDS011;2800;49.528;8.666;2023-03-16T01:51:22;15.73;;;10.38;;
5553;SDS011;2800;49.528;8.666;2023-03-16T01:53:55;16.75;;;11.70;;
5553;SDS011;2800;49.528;8.666;2023-03-16T01:56:28;15.27;;;11.48;;
5553;SDS011;2800;49.528;8.666;2023-03-16T01:58:59;16.98;;;11.73;;
5553;SDS011;2800;49.528;8.666;2023-03-16T02:01:30;15.38;;;11.05;;
5553;SDS011;2800;49.528;8.666;2023-03-16T02:03:56;19.50;;;11.67;;
5553;SDS011;2800;49.528;8.666;2023-03-16T02:06:30;16.10;;;11.90;;
5553;SDS011;2800;49.528;8.666;2023-03-16T02:08:56;15.75;;;11.40;;
5553;SDS011;2800;49.528;8.666;2023-03-16T02:11:23;18.17;;;12.25;;
5553;SDS011;2800;49.528;8.666;2023-03-16T02:13:49;14.95;;;9.85;;
5553;SDS011;2800;49.528;8.666;2023-03-16T02:16:16;15.98;;;10.02;;
5553;SDS011;2800;49.528;8.666;2023-03-16T02:18:43;14.27;;;10.00;;
5553;SDS011;2800;49.528;8.666;2023-03-16T02:24:04;14.00;;;10.40;;
5553;SDS011;2800;49.528;8.666;2023-03-16T02:26:39;14.03;;;10.50;;
5553;SDS011;2800;49.528;8.666;2023-03-16T02:29:17;14.25;;;10.40;;
5553;SDS011;2800;49.528;8.666;2023-03-16T02:31:53;13.32;;;8.38;;
5553;SDS011;2800;49.528;8.666;2023-03-16T02:34:20;14.25;;;9.18;;
5553;SDS011;2800;49.528;8.666;2023-03-16T02:36:47;14.77;;;9.88;;
5553;SDS011;2800;49.528;8.666;2023-03-16T02:39:16;12.18;;;9.05;;
5553;SDS011;2800;49.528;8.666;2023-03-16T02:41:42;13.53;;;9.57;;
5553;SDS011;2800;49.528;8.666;2023-03-16T02:44:11;13.47;;;8.37;;
5553;SDS011;2800;49.528;8.666;2023-03-16T02:46:41;12.45;;;8.65;;
5553;SDS011;2800;49.528;8.666;2023-03-16T02:49:11;13.77;;;9.60;;
5553;SDS011;2800;49.528;8.666;2023-03-16T02:51:43;15.57;;;10.40;;
5553;SDS011;2800;49.528;8.666;2023-03-16T02:54:10;14.38;;;9.82;;
5553;SDS011;2800;49.528;8.666;2023-03-16T02:56:36;12.90;;;8.93;;
5553;SDS011;2800;49.528;8.666;2023-03-16T02:59:02;12.60;;;9.27;;
5553;SDS011;2800;49.528;8.666;2023-03-16T03:01:28;16.40;;;9.00;;
5553;SDS011;2800;49.528;8.666;2023-03-16T03:03:55;15.27;;;9.45;;
5553;SDS011;2800;49.528;8.666;2023-03-16T03:06:21;13.30;;;9.30;;
5553;SDS011;2800;49.528;8.666;2023-03-16T03:08:48;12.85;;;9.27;;
5553;SDS011;2800;49.528;8.666;2023-03-16T03:11:14;12.90;;;8.80;;
5553;SDS011;2800;49.528;8.666;2023-03-16T03:13:39;12.77;;;8.07;;
5553;SDS011;2800;49.528;8.666;2023-03-16T03:16:08;12.15;;;8.45;;
5553;SDS011;2800;49.528;8.666;2023-03-16T03:18:34;13.00;;;8.57;;
5553;SDS011;2800;49.528;8.666;2023-03-16T03:21:00;12.57;;;7.30;;
5553;SDS011;2800;49.528;8.666;2023-03-16T03:23:25;9.17;;;6.30;;
5553;SDS011;2800;49.528;8.666;2023-03-16T03:25:51;9.40;;;6.67;;
5553;SDS011;2800;49.528;8.666;2023-03-16T03:28:20;8.98;;;6.10;;
5553;SDS011;2800;49.528;8.666;2023-03-16T03:30:46;11.03;;;6.70;;
5553;SDS011;2800;49.528;8.666;2023-03-16T03:33:11;11.13;;;6.80;;
5553;SDS011;2800;49.528;8.666;2023-03-16T03:35:37;13.73;;;5.97;;
5553;SDS011;2800;49.528;8.666;2023-03-16T03:38:02;8.07;;;6.10;;
5553;SDS011;2800;49.528;8.666;2023-03-16T03:40:28;9.00;;;6.27;;
5553;SDS011;2800;49.528;8.666;2023-03-16T03:42:53;9.00;;;5.50;;
5553;SDS011;2800;49.528;8.666;2023-03-16T03:45:19;8.77;;;5.43;;
5553;SDS011;2800;49.528;8.666;2023-03-16T03:47:44;8.67;;;5.77;;
5553;SDS011;2800;49.528;8.666;2023-03-16T03:50:10;9.50;;;5.90;;
5553;SDS011;2800;49.528;8.666;2023-03-16T03:52:37;8.27;;;5.40;;
5553;SDS011;2800;49.528;8.666;2023-03-16T03:55:03;8.10;;;5.20;;
5553;SDS011;2800;49.528;8.666;2023-03-16T03:57:29;10.10;;;5.00;;
5553;SDS011;2800;49.528;8.666;2023-03-16T03:59:55;8.47;;;5.33;;
5553;SDS011;2800;49.528;8.666;2023-03-16T04:02:21;9.67;;;4.50;;
5553;SDS011;2800;49.528;8.666;2023-03-16T04:04:47;15.10;;;7.90;;
5553;SDS011;2800;49.528;8.666;2023-03-16T04:07:12;7.80;;;4.53;;
5553;SDS011;2800;49.528;8.666;2023-03-16T04:09:38;6.83;;;4.30;;
5553;SDS011;2800;49.528;8.666;2023-03-16T04:12:05;8.25;;;4.97;;
5553;SDS011;2800;49.528;8.666;2023-03-16T04:14:31;8.47;;;5.00;;
5553;SDS011;2800;49.528;8.666;2023-03-16T04:16:57;7.63;;;4.80;;
5553;SDS011;2800;49.528;8.666;2023-03-16T04:19:24;7.80;;;4.57;;
5553;SDS011;2800;49.528;8.666;2023-03-16T04:21:49;8.07;;;4.82;;
5553;SDS011;2800;49.528;8.666;2023-03-16T04:24:15;7.33;;;4.60;;
5553;SDS011;2800;49.528;8.666;2023-03-16T04:26:42;7.32;;;5.25;;
5553;SDS011;2800;49.528;8.666;2023-03-16T04:29:12;7.50;;;5.03;;
5553;SDS011;2800;49.528;8.666;2023-03-16T04:31:41;7.72;;;5.18;;
5553;SDS011;2800;49.528;8.666;2023-03-16T04:34:07;8.30;;;4.80;;
5553;SDS011;2800;49.528;8.666;2023-03-16T04:36:33;7.37;;;5.17;;
5553;SDS011;2800;49.528;8.666;2023-03-16T04:38:58;8.00;;;5.23;;
5553;SDS011;2800;49.528;8.666;2023-03-16T04:41:24;8.53;;;5.60;;
5553;SDS011;2800;49.528;8.666;2023-03-16T04:43:50;7.33;;;4.67;;
5553;SDS011;2800;49.528;8.666;2023-03-16T04:46:16;6.50;;;4.60;;
5553;SDS011;2800;49.528;8.666;2023-03-16T04:48:42;7.23;;;4.40;;
5553;SDS011;2800;49.528;8.666;2023-03-16T04:51:07;7.70;;;4.90;;
5553;SDS011;2800;49.528;8.666;2023-03-16T04:53:33;8.77;;;4.93;;
5553;SDS011;2800;49.528;8.666;2023-03-16T04:55:59;8.30;;;4.87;;
5553;SDS011;2800;49.528;8.666;2023-03-16T04:58:24;7.87;;;4.93;;
5553;SDS011;2800;49.528;8.666;2023-03-16T05:00:50;8.43;;;4.97;;
5553;SDS011;2800;49.528;8.666;2023-03-16T05:03:16;7.50;;;5.05;;
5553;SDS011;2800;49.528;8.666;2023-03-16T05:05:42;8.20;;;5.20;;
5553;SDS011;2800;49.528;8.666;2023-03-16T05:08:09;8.23;;;4.97;;
5553;SDS011;2800;49.528;8.666;2023-03-16T05:10:35;8.43;;;5.43;;
5553;SDS011;2800;49.528;8.666;2023-03-16T05:13:00;7.80;;;5.60;;
5553;SDS011;2800;49.528;8.666;2023-03-16T05:15:26;7.60;;;5.50;;
5553;SDS011;2800;49.528;8.666;2023-03-16T05:17:53;10.87;;;6.23;;
5553;SDS011;2800;49.528;8.666;2023-03-16T05:20:20;8.27;;;5.90;;
5553;SDS011;2800;49.528;8.666;2023-03-16T05:22:46;8.87;;;5.90;;
5553;SDS011;2800;49.528;8.666;2023-03-16T05:25:13;9.27;;;5.90;;
5553;SDS011;2800;49.528;8.666;2023-03-16T05:27:40;8.10;;;5.70;;
5553;SDS011;2800;49.528;8.666;2023-03-16T05:30:10;10.00;;;6.70;;
5553;SDS011;2800;49.528;8.666;2023-03-16T05:32:37;10.80;;;6.70;;
5553;SDS011;2800;49.528;8.666;2023-03-16T05:35:03;11.50;;;6.70;;
5553;SDS011;2800;49.528;8.666;2023-03-16T05:37:29;9.93;;;7.30;;
5553;SDS011;2800;49.528;8.666;2023-03-16T05:39:55;10.77;;;7.80;;
5553;SDS011;2800;49.528;8.666;2023-03-16T05:42:22;11.07;;;8.20;;
5553;SDS011;2800;49.528;8.666;2023-03-16T05:44:48;10.70;;;7.40;;
5553;SDS011;2800;49.528;8.666;2023-03-16T05:47:13;10.10;;;7.57;;
5553;SDS011;2800;49.528;8.666;2023-03-16T05:49:39;9.97;;;6.70;;
5553;SDS011;2800;49.528;8.666;2023-03-16T05:52:04;10.47;;;7.23;;
5553;SDS011;2800;49.528;8.666;2023-03-16T05:54:30;11.80;;;7.13;;
5553;SDS011;2800;49.528;8.666;2023-03-16T05:56:55;11.43;;;7.60;;
5553;SDS011;2800;49.528;8.666;2023-03-16T05:59:21;9.80;;;7.10;;
5553;SDS011;2800;49.528;8.666;2023-03-16T06:01:46;10.10;;;7.17;;
5553;SDS011;2800;49.528;8.666;2023-03-16T06:04:14;11.10;;;7.53;;
5553;SDS011;2800;49.528;8.666;2023-03-16T06:06:39;9.67;;;7.10;;
5553;SDS011;2800;49.528;8.666;2023-03-16T06:09:05;10.03;;;7.40;;
5553;SDS011;2800;49.528;8.666;2023-03-16T06:11:30;12.13;;;7.77;;
5553;SDS011;2800;49.528;8.666;2023-03-16T06:13:57;10.93;;;8.40;;
5553;SDS011;2800;49.528;8.666;2023-03-16T06:16:23;18.23;;;8.13;;
5553;SDS011;2800;49.528;8.666;2023-03-16T06:18:48;12.40;;;8.90;;
5553;SDS011;2800;49.528;8.666;2023-03-16T06:21:15;12.93;;;8.23;;
5553;SDS011;2800;49.528;8.666;2023-03-16T06:23:40;13.10;;;8.82;;
5553;SDS011;2800;49.528;8.666;2023-03-16T06:26:06;11.40;;;8.07;;
5553;SDS011;2800;49.528;8.666;2023-03-16T06:28:31;11.57;;;8.00;;
5553;SDS011;2800;49.528;8.666;2023-03-16T06:30:57;11.00;;;8.10;;
5553;SDS011;2800;49.528;8.666;2023-03-16T06:33:23;12.30;;;8.83;;
5553;SDS011;2800;49.528;8.666;2023-03-16T06:35:49;12.73;;;7.73;;
5553;SDS011;2800;49.528;8.666;2023-03-16T06:38:16;10.47;;;8.03;;
5553;SDS011;2800;49.528;8.666;2023-03-16T06:40:42;10.77;;;8.60;;
5553;SDS011;2800;49.528;8.666;2023-03-16T06:43:07;10.80;;;8.30;;
5553;SDS011;2800;49.528;8.666;2023-03-16T06:45:33;11.43;;;8.50;;
5553;SDS011;2800;49.528;8.666;2023-03-16T06:47:58;12.30;;;8.40;;
5553;SDS011;2800;49.528;8.666;2023-03-16T06:50:24;12.20;;;8.70;;
5553;SDS011;2800;49.528;8.666;2023-03-16T06:52:50;16.23;;;8.77;;
5553;SDS011;2800;49.528;8.666;2023-03-16T06:55:16;10.37;;;7.67;;
5553;SDS011;2800;49.528;8.666;2023-03-16T06:57:41;11.60;;;8.30;;
5553;SDS011;2800;49.528;8.666;2023-03-16T07:00:11;12.13;;;8.40;;
5553;SDS011;2800;49.528;8.666;2023-03-16T07:02:39;13.43;;;8.50;;
5553;SDS011;2800;49.528;8.666;2023-03-16T07:05:06;12.63;;;8.90;;
5553;SDS011;2800;49.528;8.666;2023-03-16T07:07:32;12.30;;;8.33;;
5553;SDS011;2800;49.528;8.666;2023-03-16T07:09:58;11.63;;;7.33;;
5553;SDS011;2800;49.528;8.666;2023-03-16T07:12:23;12.20;;;8.57;;
5553;SDS011;2800;49.528;8.666;2023-03-16T07:14:49;11.63;;;9.40;;
5553;SDS011;2800;49.528;8.666;2023-03-16T07:17:15;11.80;;;8.87;;
5553;SDS011;2800;49.528;8.666;2023-03-16T07:19:41;11.17;;;8.00;;
5553;SDS011;2800;49.528;8.666;2023-03-16T07:22:07;14.50;;;10.27;;
5553;SDS011;2800;49.528;8.666;2023-03-16T07:24:33;14.00;;;10.47;;
5553;SDS011;2800;49.528;8.666;2023-03-16T07:26:58;14.10;;;9.20;;
5553;SDS011;2800;49.528;8.666;2023-03-16T07:29:24;26.00;;;17.33;;
5553;SDS011;2800;49.528;8.666;2023-03-16T07:31:49;32.63;;;19.63;;
5553;SDS011;2800;49.528;8.666;2023-03-16T07:34:15;12.83;;;9.10;;
5553;SDS011;2800;49.528;8.666;2023-03-16T07:36:40;11.33;;;8.20;;
5553;SDS011;2800;49.528;8.666;2023-03-16T07:39:06;15.97;;;12.07;;
5553;SDS011;2800;49.528;8.666;2023-03-16T07:41:31;9.70;;;7.93;;
5553;SDS011;2800;49.528;8.666;2023-03-16T07:43:57;14.13;;;9.07;;
5553;SDS011;2800;49.528;8.666;2023-03-16T07:46:23;11.00;;;7.83;;
5553;SDS011;2800;49.528;8.666;2023-03-16T07:48:48;12.03;;;8.40;;
5553;SDS011;2800;49.528;8.666;2023-03-16T07:51:14;9.10;;;7.63;;
5553;SDS011;2800;49.528;8.666;2023-03-16T07:53:40;11.67;;;8.17;;
5553;SDS011;2800;49.528;8.666;2023-03-16T07:56:06;11.73;;;9.47;;
5553;SDS011;2800;49.528;8.666;2023-03-16T07:58:32;11.10;;;8.00;;
5553;SDS011;2800;49.528;8.666;2023-03-16T08:00:58;11.30;;;8.63;;
5553;SDS011;2800;49.528;8.666;2023-03-16T08:03:25;12.47;;;9.43;;
5553;SDS011;2800;49.528;8.666;2023-03-16T08:05:51;11.87;;;8.83;;
5553;SDS011;2800;49.528;8.666;2023-03-16T08:08:17;10.90;;;8.37;;
5553;SDS011;2800;49.528;8.666;2023-03-16T08:10:45;9.80;;;7.87;;
5553;SDS011;2800;49.528;8.666;2023-03-16T08:13:12;11.40;;;7.37;;
5553;SDS011;2800;49.528;8.666;2023-03-16T08:15:38;11.73;;;8.00;;
5553;SDS011;2800;49.528;8.666;2023-03-16T08:18:04;8.90;;;7.00;;
5553;SDS011;2800;49.528;8.666;2023-03-16T08:20:31;11.00;;;7.80;;
5553;SDS011;2800;49.528;8.666;2023-03-16T08:22:57;10.50;;;7.20;;
5553;SDS011;2800;49.528;8.666;2023-03-16T08:25:22;10.07;;;7.60;;
5553;SDS011;2800;49.528;8.666;2023-03-16T08:27:48;10.30;;;7.37;;
5553;SDS011;2800;49.528;8.666;2023-03-16T08:30:14;8.80;;;6.50;;
5553;SDS011;2800;49.528;8.666;2023-03-16T08:32:40;9.93;;;6.97;;
5553;SDS011;2800;49.528;8.666;2023-03-16T08:35:10;9.40;;;7.20;;
5553;SDS011;2800;49.528;8.666;2023-03-16T08:37:37;12.30;;;6.90;;
5553;SDS011;2800;49.528;8.666;2023-03-16T08:40:03;9.53;;;6.40;;
5553;SDS011;2800;49.528;8.666;2023-03-16T08:42:34;8.30;;;6.40;;
5553;SDS011;2800;49.528;8.666;2023-03-16T08:45:00;8.90;;;6.70;;
5553;SDS011;2800;49.528;8.666;2023-03-16T08:47:33;9.10;;;6.93;;
5553;SDS011;2800;49.528;8.666;2023-03-16T08:49:59;9.50;;;6.30;;
5553;SDS011;2800;49.528;8.666;2023-03-16T08:52:25;7.37;;;5.60;;
5553;SDS011;2800;49.528;8.666;2023-03-16T08:54:51;7.50;;;5.90;;
5553;SDS011;2800;49.528;8.666;2023-03-16T08:57:16;8.50;;;6.37;;
5553;SDS011;2800;49.528;8.666;2023-03-16T08:59:42;7.37;;;5.50;;
5553;SDS011;2800;49.528;8.666;2023-03-16T09:02:10;7.83;;;5.63;;
5553;SDS011;2800;49.528;8.666;2023-03-16T09:04:38;7.37;;;5.33;;
5553;SDS011;2800;49.528;8.666;2023-03-16T09:07:04;7.40;;;5.47;;
5553;SDS011;2800;49.528;8.666;2023-03-16T09:09:29;7.77;;;5.30;;
5553;SDS011;2800;49.528;8.666;2023-03-16T09:11:56;7.37;;;5.70;;
5553;SDS011;2800;49.528;8.666;2023-03-16T09:14:22;7.73;;;5.80;;
5553;SDS011;2800;49.528;8.666;2023-03-16T09:16:48;7.80;;;5.30;;
5553;SDS011;2800;49.528;8.666;2023-03-16T09:19:14;7.80;;;5.23;;
5553;SDS011;2800;49.528;8.666;2023-03-16T09:21:39;7.53;;;5.40;;
5553;SDS011;2800;49.528;8.666;2023-03-16T09:24:05;7.53;;;5.27;;
5553;SDS011;2800;49.528;8.666;2023-03-16T09:26:32;7.77;;;5.17;;
5553;SDS011;2800;49.528;8.666;2023-03-16T09:28:59;6.53;;;4.90;;
5553;SDS011;2800;49.528;8.666;2023-03-16T09:31:24;6.27;;;4.60;;
5553;SDS011;2800;49.528;8.666;2023-03-16T09:33:50;6.63;;;4.30;;
5553;SDS011;2800;49.528;8.666;2023-03-16T09:36:16;6.77;;;4.40;;
5553;SDS011;2800;49.528;8.666;2023-03-16T09:38:42;6.60;;;4.50;;
5553;SDS011;2800;49.528;8.666;2023-03-16T09:41:17;6.70;;;4.30;;
5553;SDS011;2800;49.528;8.666;2023-03-16T09:48:53;6.20;;;4.57;;
5553;SDS011;2800;49.528;8.666;2023-03-16T09:51:54;11.03;;;7.40;;
5553;SDS011;2800;49.528;8.666;2023-03-16T09:54:39;19.00;;;10.60;;
5553;SDS011;2800;49.528;8.666;2023-03-16T09:57:11;6.63;;;4.37;;
5553;SDS011;2800;49.528;8.666;2023-03-16T09:59:46;6.57;;;4.33;;
5553;SDS011;2800;49.528;8.666;2023-03-16T10:02:22;6.33;;;4.20;;
5553;SDS011;2800;49.528;8.666;2023-03-16T10:05:09;7.10;;;4.50;;
5553;SDS011;2800;49.528;8.666;2023-03-16T10:13:16;6.80;;;4.37;;
5553;SDS011;2800;49.528;8.666;2023-03-16T10:16:04;5.57;;;4.10;;
5553;SDS011;2800;49.528;8.666;2023-03-16T10:18:37;7.33;;;4.30;;
5553;SDS011;2800;49.528;8.666;2023-03-16T10:21:10;8.20;;;5.57;;
5553;SDS011;2800;49.528;8.666;2023-03-16T10:23:38;7.30;;;4.77;;
5553;SDS011;2800;49.528;8.666;2023-03-16T10:26:09;7.40;;;4.77;;
5553;SDS011;2800;49.528;8.666;2023-03-16T10:28:37;10.80;;;7.30;;
5553;SDS011;2800;49.528;8.666;2023-03-16T10:31:03;7.07;;;4.37;;
5553;SDS011;2800;49.528;8.666;2023-03-16T10:33:32;7.40;;;4.90;;
5553;SDS011;2800;49.528;8.666;2023-03-16T10:36:04;6.10;;;3.60;;
5553;SDS011;2800;49.528;8.666;2023-03-16T10:43:42;6.83;;;4.30;;
5553;SDS011;2800;49.528;8.666;2023-03-16T10:46:13;7.93;;;3.87;;
5553;SDS011;2800;49.528;8.666;2023-03-16T10:48:38;7.07;;;3.73;;
5553;SDS011;2800;49.528;8.666;2023-03-16T10:51:06;6.80;;;4.03;;
5553;SDS011;2800;49.528;8.666;2023-03-16T10:53:36;5.93;;;3.83;;
5553;SDS011;2800;49.528;8.666;2023-03-16T10:56:09;9.40;;;3.80;;
5553;SDS011;2800;49.528;8.666;2023-03-16T10:58:42;5.47;;;3.30;;
5553;SDS011;2800;49.528;8.666;2023-03-16T11:01:18;6.07;;;3.50;;
5553;SDS011;2800;49.528;8.666;2023-03-16T11:03:51;6.63;;;3.80;;
5553;SDS011;2800;49.528;8.666;2023-03-16T11:06:29;7.63;;;4.03;;
5553;SDS011;2800;49.528;8.666;2023-03-16T11:11:58;6.50;;;3.90;;
5553;SDS011;2800;49.528;8.666;2023-03-16T11:14:25;5.77;;;3.30;;
5553;SDS011;2800;49.528;8.666;2023-03-16T11:16:55;5.50;;;2.87;;
5553;SDS011;2800;49.528;8.666;2023-03-16T11:19:41;6.20;;;3.20;;
5553;SDS011;2800;49.528;8.666;2023-03-16T11:22:23;11.67;;;6.40;;
5553;SDS011;2800;49.528;8.666;2023-03-16T11:30:41;7.73;;;4.50;;
5553;SDS011;2800;49.528;8.666;2023-03-16T11:33:15;6.13;;;2.90;;
5553;SDS011;2800;49.528;8.666;2023-03-16T11:36:09;19.03;;;8.70;;
5553;SDS011;2800;49.528;8.666;2023-03-16T11:39:02;6.40;;;4.30;;
5553;SDS011;2800;49.528;8.666;2023-03-16T12:03:26;6.40;;;3.17;;
5553;SDS011;2800;49.528;8.666;2023-03-16T12:06:01;6.83;;;2.90;;
5553;SDS011;2800;49.528;8.666;2023-03-16T12:11:33;4.80;;;2.90;;
5553;SDS011;2800;49.528;8.666;2023-03-16T12:14:29;5.20;;;2.97;;
5553;SDS011;2800;49.528;8.666;2023-03-16T12:17:07;5.90;;;3.20;;
5553;SDS011;2800;49.528;8.666;2023-03-16T12:19:48;5.17;;;2.90;;
5553;SDS011;2800;49.528;8.666;2023-03-16T12:22:19;5.60;;;2.97;;
5553;SDS011;2800;49.528;8.666;2023-03-16T12:24:47;4.60;;;2.53;;
5553;SDS011;2800;49.528;8.666;2023-03-16T12:27:18;5.03;;;2.63;;
5553;SDS011;2800;49.528;8.666;2023-03-16T12:29:51;4.87;;;2.57;;
5553;SDS011;2800;49.528;8.666;2023-03-16T12:32:38;4.17;;;2.20;;
5553;SDS011;2800;49.528;8.666;2023-03-16T12:38:06;6.90;;;2.57;;
5553;SDS011;2800;49.528;8.666;2023-03-16T12:43:45;4.70;;;2.50;;
5553;SDS011;2800;49.528;8.666;2023-03-16T12:46:21;8.37;;;5.40;;
5553;SDS011;2800;49.528;8.666;2023-03-16T12:49:01;5.53;;;2.60;;
5553;SDS011;2800;49.528;8.666;2023-03-16T12:51:34;4.63;;;2.37;;
5553;SDS011;2800;49.528;8.666;2023-03-16T12:54:00;4.53;;;2.27;;
5553;SDS011;2800;49.528;8.666;2023-03-16T12:56:29;5.87;;;2.67;;
5553;SDS011;2800;49.528;8.666;2023-03-16T12:58:58;4.90;;;2.43;;
5553;SDS011;2800;49.528;8.666;2023-03-16T13:01:48;6.27;;;2.50;;
5553;SDS011;2800;49.528;8.666;2023-03-16T13:04:17;4.17;;;2.00;;
5553;SDS011;2800;49.528;8.666;2023-03-16T13:06:49;5.13;;;2.30;;
5553;SDS011;2800;49.528;8.666;2023-03-16T13:09:26;7.43;;;2.70;;
5553;SDS011;2800;49.528;8.666;2023-03-16T13:11:55;4.67;;;2.30;;
5553;SDS011;2800;49.528;8.666;2023-03-16T13:14:41;5.20;;;2.40;;
5553;SDS011;2800;49.528;8.666;2023-03-16T13:19:39;4.93;;;2.77;;
5553;SDS011;2800;49.528;8.666;2023-03-16T13:24:59;4.63;;;2.63;;
5553;SDS011;2800;49.528;8.666;2023-03-16T13:27:38;5.40;;;2.53;;
5553;SDS011;2800;49.528;8.666;2023-03-16T13:33:16;5.93;;;2.63;;
5553;SDS011;2800;49.528;8.666;2023-03-16T13:35:43;6.40;;;3.00;;
5553;SDS011;2800;49.528;8.666;2023-03-16T13:38:13;6.40;;;2.97;;
5553;SDS011;2800;49.528;8.666;2023-03-16T13:40:44;5.50;;;2.90;;
5553;SDS011;2800;49.528;8.666;2023-03-16T13:43:15;4.87;;;2.43;;
5553;SDS011;2800;49.528;8.666;2023-03-16T13:45:43;4.97;;;2.53;;
5553;SDS011;2800;49.528;8.666;2023-03-16T13:48:10;5.87;;;2.97;;
5553;SDS011;2800;49.528;8.666;2023-03-16T13:50:37;5.33;;;2.77;;
5553;SDS011;2800;49.528;8.666;2023-03-16T13:53:15;5.93;;;2.53;;
5553;SDS011;2800;49.528;8.666;2023-03-16T13:55:54;5.57;;;3.03;;
5553;SDS011;2800;49.528;8.666;2023-03-16T13:58:27;5.47;;;3.30;;
5553;SDS011;2800;49.528;8.666;2023-03-16T14:00:56;5.03;;;2.87;;
5553;SDS011;2800;49.528;8.666;2023-03-16T14:03:29;7.73;;;4.13;;
5553;SDS011;2800;49.528;8.666;2023-03-16T14:06:00;7.83;;;3.20;;
5553;SDS011;2800;49.528;8.666;2023-03-16T14:08:27;5.47;;;2.83;;
5553;SDS011;2800;49.528;8.666;2023-03-16T14:10:54;6.37;;;2.90;;
5553;SDS011;2800;49.528;8.666;2023-03-16T14:15:53;6.00;;;3.30;;
5553;SDS011;2800;49.528;8.666;2023-03-16T14:18:34;5.80;;;3.00;;
5553;SDS011;2800;49.528;8.666;2023-03-16T14:21:07;5.70;;;3.33;;
5553;SDS011;2800;49.528;8.666;2023-03-16T14:23:41;5.13;;;3.03;;
5553;SDS011;2800;49.528;8.666;2023-03-16T14:26:13;5.57;;;3.20;;
5553;SDS011;2800;49.528;8.666;2023-03-16T14:28:40;6.90;;;3.07;;
5553;SDS011;2800;49.528;8.666;2023-03-16T14:31:18;6.60;;;3.70;;
5553;SDS011;2800;49.528;8.666;2023-03-16T14:33:45;8.00;;;3.63;;
5553;SDS011;2800;49.528;8.666;2023-03-16T14:36:11;5.17;;;3.50;;
5553;SDS011;2800;49.528;8.666;2023-03-16T14:38:43;5.63;;;3.27;;
5553;SDS011;2800;49.528;8.666;2023-03-16T14:43:55;6.50;;;3.10;;
5553;SDS011;2800;49.528;8.666;2023-03-16T14:46:25;8.10;;;3.70;;
5553;SDS011;2800;49.528;8.666;2023-03-16T14:51:34;5.73;;;3.30;;
5553;SDS011;2800;49.528;8.666;2023-03-16T14:54:07;7.93;;;2.87;;
5553;SDS011;2800;49.528;8.666;2023-03-16T14:56:38;5.40;;;3.10;;
5553;SDS011;2800;49.528;8.666;2023-03-16T14:59:03;7.23;;;2.90;;
5553;SDS011;2800;49.528;8.666;2023-03-16T15:01:30;8.03;;;2.90;;
5553;SDS011;2800;49.528;8.666;2023-03-16T15:03:56;5.20;;;3.00;;
5553;SDS011;2800;49.528;8.666;2023-03-16T15:06:21;6.50;;;3.70;;
5553;SDS011;2800;49.528;8.666;2023-03-16T15:08:47;6.80;;;3.43;;
5553;SDS011;2800;49.528;8.666;2023-03-16T15:11:14;6.10;;;3.00;;
5553;SDS011;2800;49.528;8.666;2023-03-16T15:13:45;5.70;;;2.97;;
5553;SDS011;2800;49.528;8.666;2023-03-16T15:16:12;6.40;;;3.10;;
5553;SDS011;2800;49.528;8.666;2023-03-16T15:18:38;4.80;;;2.67;;
5553;SDS011;2800;49.528;8.666;2023-03-16T15:21:11;6.33;;;2.70;;
5553;SDS011;2800;49.528;8.666;2023-03-16T15:23:40;5.57;;;2.50;;
5553;SDS011;2800;49.528;8.666;2023-03-16T15:26:08;7.17;;;2.70;;
5553;SDS011;2800;49.528;8.666;2023-03-16T15:28:45;6.33;;;2.97;;
5553;SDS011;2800;49.528;8.666;2023-03-16T15:31:11;6.70;;;3.13;;
5553;SDS011;2800;49.528;8.666;2023-03-16T15:33:38;4.30;;;2.47;;
5553;SDS011;2800;49.528;8.666;2023-03-16T15:36:20;4.83;;;2.50;;
5553;SDS011;2800;49.528;8.666;2023-03-16T15:38:50;5.47;;;2.80;;
5553;SDS011;2800;49.528;8.666;2023-03-16T15:41:18;6.37;;;2.57;;
5553;SDS011;2800;49.528;8.666;2023-03-16T15:43:44;5.20;;;2.60;;
5553;SDS011;2800;49.528;8.666;2023-03-16T15:46:09;4.30;;;2.33;;
5553;SDS011;2800;49.528;8.666;2023-03-16T15:48:36;5.30;;;2.47;;
5553;SDS011;2800;49.528;8.666;2023-03-16T15:51:06;4.20;;;2.30;;
5553;SDS011;2800;49.528;8.666;2023-03-16T15:53:46;5.50;;;2.40;;
5553;SDS011;2800;49.528;8.666;2023-03-16T15:56:15;5.17;;;2.50;;
5553;SDS011;2800;49.528;8.666;2023-03-16T15:58:45;4.43;;;2.20;;
5553;SDS011;2800;49.528;8.666;2023-03-16T16:01:30;5.40;;;2.20;;
5553;SDS011;2800;49.528;8.666;2023-03-16T16:04:03;6.07;;;2.50;;
5553;SDS011;2800;49.528;8.666;2023-03-16T16:06:30;4.60;;;2.60;;
5553;SDS011;2800;49.528;8.666;2023-03-16T16:08:56;5.03;;;2.70;;
5553;SDS011;2800;49.528;8.666;2023-03-16T16:11:25;5.53;;;2.67;;
5553;SDS011;2800;49.528;8.666;2023-03-16T16:13:53;4.67;;;2.40;;
5553;SDS011;2800;49.528;8.666;2023-03-16T16:16:20;6.23;;;2.30;;
5553;SDS011;2800;49.528;8.666;2023-03-16T16:18:46;7.33;;;2.27;;
5553;SDS011;2800;49.528;8.666;2023-03-16T16:21:16;21.30;;;11.57;;
5553;SDS011;2800;49.528;8.666;2023-03-16T16:23:46;21.90;;;12.10;;
5553;SDS011;2800;49.528;8.666;2023-03-16T16:29:05;15.37;;;8.80;;
5553;SDS011;2800;49.528;8.666;2023-03-16T16:31:36;15.20;;;10.17;;
5553;SDS011;2800;49.528;8.666;2023-03-16T16:34:02;15.80;;;9.73;;
5553;SDS011;2800;49.528;8.666;2023-03-16T16:36:29;6.87;;;3.60;;
5553;SDS011;2800;49.528;8.666;2023-03-16T16:38:56;14.53;;;8.40;;